Auburn, WY

8:07 PM MDT on July 23, 2014 (GMT -0600)
LCWY Branch Office (KWYAFTON3) Elev 6270 ft | 42.72 °N, 110.93 °W | Change Station

Current weather conditions updated 5 minutes ago

Clear
Clear
84.0 °F
Feels Like 82 °F
N
3.0
Wind Variable Wind from SW
Gusts 8.0 mph

Tomorrow is forecast to be Much Cooler than today.

Today
High -- | Low -- °F
--% Chance of Precip.
Yesterday
High -- | Low -- °F
Precip. -- in
6:06 AM 8:53 PM
Waning Crescent, 7% visible
Pressure 30.15 in
Visibility 10.0 miles
Clouds Clear
Heat Index 82 °F
Dew Point 43 °F
Humidity 24%
Rainfall 0.00 in
Snow Depth 0 in
UV 1 out of 12
Pollen 5.90 out of 12
Air Quality Not available.
Flu Activity Not available.
METAR KAFO 240135Z AUTO 23006KT 10SM CLR 29/04 A3015 RMK AO2

More Conditions Fewer Conditions

Pressure 30.15 in
Visibility 10.0 miles
Clouds Clear
Heat Index 82 °F
Dew Point 43 °F
Humidity 24%
Rainfall 0.00 in
Snow Depth 0 in
UV 1 out of 12
Pollen 5.90 out of 12
Air Quality Not available.
Flu Activity Not available.
METAR KAFO 240135Z AUTO 23006KT 10SM CLR 29/04 A3015 RMK AO2

More Conditions Fewer Conditions

10-Day Weather Forecast

Almanac

Astronomy

Jul. 23, 2014 Rise Set
Actual Time 6:06 AM MDT 8:53 PM MDT
Civil Twilight 5:33 AM MDT 9:26 PM MDT
Nautical Twilight 4:51 AM MDT 10:08 PM MDT
Astronomical Twilight 4:03 AM MDT 10:56 PM MDT
Moon 3:28 AM MDT (7/23) 6:24 PM MDT (7/23)
Length of Visible Light 15h 53m
Length of Day
14h 47m
Tomorrow will be 1m 55s shorter.
Waning Crescent, 7% of the Moon is Illuminated
Today
Waning Crescent
Jul 26
New
Aug 3
First Quarter
Aug 10
Full
Aug 17
Last Quarter

Today's Extremes

State Highs State Lows

Community

WunderPhotos

Upload Photos

1,736,843 photos uploaded!

Nearby

Snow Depth

Station Depth Elevation
Willow Creek 0 in 8450 ft
Blind Bull Summit 0 in 8900 ft
Phillips Bench 0 in 8200 ft
Big Sandy Opening 0 in 9080 ft
Burroughs Creek 0 in 8750 ft

Earthquake Activity

City Distance Mag. Time & Date
Driggs, Idaho 69 miles 3.1 5:31 PM MDT
2014-07-17
Minimum magnitude displayed is 2.5.

Coastal Water Temperatures

Place Temperature
No Stations Reporting

Nearby Weather Stations

Station Location Temp. Heat Index Dew Point Humidity Wind Precip. Elev Updated Type
LCWY Branch Office, Afton, WY 84.0 °F 82 °F 43 °F 24% SW  at  3.0 mph 0.00 in / hr 6270 ft 8:02 PM MDT Normal
Afton, WY 80.7 °F 79 °F 4 °F 5% ESE  at  5.0 mph 0.00 in / hr 6312 ft 8:05 PM MDT Normal

Show More Stations Show Fewer Stations